sensor_id;sensor_type;location;lat;lon;timestamp;P1;durP1;ratioP1;P2;durP2;ratioP2
70667;SDS011;58242;51.250;-1.118;2023-04-24T00:00:00;5.88;;;4.75;;
70667;SDS011;58242;51.250;-1.118;2023-04-24T00:02:26;5.75;;;5.22;;
70667;SDS011;58242;51.250;-1.118;2023-04-24T00:04:51;5.00;;;4.57;;
70667;SDS011;58242;51.250;-1.118;2023-04-24T00:07:16;4.85;;;4.35;;
70667;SDS011;58242;51.250;-1.118;2023-04-24T00:09:45;6.18;;;5.57;;
70667;SDS011;58242;51.250;-1.118;2023-04-24T00:12:10;5.45;;;4.95;;
70667;SDS011;58242;51.250;-1.118;2023-04-24T00:14:36;5.57;;;4.38;;
70667;SDS011;58242;51.250;-1.118;2023-04-24T00:17:01;3.95;;;3.65;;
70667;SDS011;58242;51.250;-1.118;2023-04-24T00:19:29;4.37;;;4.00;;
70667;SDS011;58242;51.250;-1.118;2023-04-24T00:21:55;4.50;;;4.13;;
70667;SDS011;58242;51.250;-1.118;2023-04-24T00:24:20;4.03;;;3.67;;
70667;SDS011;58242;51.250;-1.118;2023-04-24T00:26:45;6.45;;;5.45;;
70667;SDS011;58242;51.250;-1.118;2023-04-24T00:29:11;6.72;;;5.70;;
70667;SDS011;58242;51.250;-1.118;2023-04-24T00:31:36;6.95;;;5.90;;
70667;SDS011;58242;51.250;-1.118;2023-04-24T00:34:02;6.40;;;5.75;;
70667;SDS011;58242;51.250;-1.118;2023-04-24T00:36:28;5.30;;;4.90;;
70667;SDS011;58242;51.250;-1.118;2023-04-24T00:38:54;5.75;;;5.07;;
70667;SDS011;58242;51.250;-1.118;2023-04-24T00:41:20;5.43;;;4.88;;
70667;SDS011;58242;51.250;-1.118;2023-04-24T00:43:46;5.45;;;4.68;;
70667;SDS011;58242;51.250;-1.118;2023-04-24T00:46:11;5.47;;;4.65;;
70667;SDS011;58242;51.250;-1.118;2023-04-24T00:48:38;5.75;;;5.05;;
70667;SDS011;58242;51.250;-1.118;2023-04-24T00:51:04;5.13;;;4.63;;
70667;SDS011;58242;51.250;-1.118;2023-04-24T00:53:29;4.65;;;4.15;;
70667;SDS011;58242;51.250;-1.118;2023-04-24T00:55:55;3.70;;;3.40;;
70667;SDS011;58242;51.250;-1.118;2023-04-24T00:58:21;3.97;;;3.67;;
70667;SDS011;58242;51.250;-1.118;2023-04-24T01:00:46;3.60;;;3.28;;
70667;SDS011;58242;51.250;-1.118;2023-04-24T01:03:13;3.72;;;3.42;;
70667;SDS011;58242;51.250;-1.118;2023-04-24T01:05:39;3.58;;;3.28;;
70667;SDS011;58242;51.250;-1.118;2023-04-24T01:08:04;3.65;;;3.35;;
70667;SDS011;58242;51.250;-1.118;2023-04-24T01:10:30;4.68;;;4.28;;
70667;SDS011;58242;51.250;-1.118;2023-04-24T01:12:58;4.72;;;4.18;;
70667;SDS011;58242;51.250;-1.118;2023-04-24T01:15:23;6.22;;;4.40;;
70667;SDS011;58242;51.250;-1.118;2023-04-24T01:17:49;6.57;;;4.53;;
70667;SDS011;58242;51.250;-1.118;2023-04-24T01:20:15;4.63;;;4.03;;
70667;SDS011;58242;51.250;-1.118;2023-04-24T01:22:40;4.10;;;3.53;;
70667;SDS011;58242;51.250;-1.118;2023-04-24T01:25:07;4.40;;;4.00;;
70667;SDS011;58242;51.250;-1.118;2023-04-24T01:27:32;3.58;;;3.28;;
70667;SDS011;58242;51.250;-1.118;2023-04-24T01:29:58;3.28;;;3.00;;
70667;SDS011;58242;51.250;-1.118;2023-04-24T01:32:23;4.00;;;3.70;;
70667;SDS011;58242;51.250;-1.118;2023-04-24T01:34:49;3.95;;;3.60;;
70667;SDS011;58242;51.250;-1.118;2023-04-24T01:37:15;4.25;;;3.85;;
70667;SDS011;58242;51.250;-1.118;2023-04-24T01:39:41;5.90;;;5.30;;
70667;SDS011;58242;51.250;-1.118;2023-04-24T01:42:07;4.80;;;4.38;;
70667;SDS011;58242;51.250;-1.118;2023-04-24T01:44:33;6.32;;;5.72;;
70667;SDS011;58242;51.250;-1.118;2023-04-24T01:47:00;6.03;;;5.53;;
70667;SDS011;58242;51.250;-1.118;2023-04-24T01:49:26;5.85;;;5.25;;
70667;SDS011;58242;51.250;-1.118;2023-04-24T01:51:51;5.13;;;4.63;;
70667;SDS011;58242;51.250;-1.118;2023-04-24T01:54:17;7.65;;;6.25;;
70667;SDS011;58242;51.250;-1.118;2023-04-24T01:56:42;6.03;;;5.53;;
70667;SDS011;58242;51.250;-1.118;2023-04-24T01:59:11;5.35;;;4.85;;
70667;SDS011;58242;51.250;-1.118;2023-04-24T02:01:37;5.32;;;4.82;;
70667;SDS011;58242;51.250;-1.118;2023-04-24T02:04:03;4.65;;;4.25;;
70667;SDS011;58242;51.250;-1.118;2023-04-24T02:06:30;4.85;;;4.38;;
70667;SDS011;58242;51.250;-1.118;2023-04-24T02:08:59;3.92;;;3.63;;
70667;SDS011;58242;51.250;-1.118;2023-04-24T02:11:25;4.47;;;4.05;;
70667;SDS011;58242;51.250;-1.118;2023-04-24T02:13:51;4.85;;;4.43;;
70667;SDS011;58242;51.250;-1.118;2023-04-24T02:16:16;4.60;;;4.20;;
70667;SDS011;58242;51.250;-1.118;2023-04-24T02:18:42;4.68;;;4.28;;
70667;SDS011;58242;51.250;-1.118;2023-04-24T02:21:08;5.50;;;5.00;;
70667;SDS011;58242;51.250;-1.118;2023-04-24T02:23:33;5.07;;;4.57;;
70667;SDS011;58242;51.250;-1.118;2023-04-24T02:25:58;4.25;;;3.85;;
70667;SDS011;58242;51.250;-1.118;2023-04-24T02:28:23;4.60;;;4.30;;
70667;SDS011;58242;51.250;-1.118;2023-04-24T02:30:49;4.90;;;4.50;;
70667;SDS011;58242;51.250;-1.118;2023-04-24T02:33:15;4.50;;;4.10;;
70667;SDS011;58242;51.250;-1.118;2023-04-24T02:35:40;4.68;;;4.13;;
70667;SDS011;58242;51.250;-1.118;2023-04-24T02:38:06;5.47;;;4.97;;
70667;SDS011;58242;51.250;-1.118;2023-04-24T02:40:31;6.18;;;5.57;;
70667;SDS011;58242;51.250;-1.118;2023-04-24T02:42:56;7.38;;;6.40;;
70667;SDS011;58242;51.250;-1.118;2023-04-24T02:45:22;6.65;;;6.05;;
70667;SDS011;58242;51.250;-1.118;2023-04-24T02:47:47;7.03;;;5.88;;
70667;SDS011;58242;51.250;-1.118;2023-04-24T02:50:13;6.95;;;6.07;;
70667;SDS011;58242;51.250;-1.118;2023-04-24T02:52:38;5.30;;;4.80;;
70667;SDS011;58242;51.250;-1.118;2023-04-24T02:55:04;5.25;;;4.75;;
70667;SDS011;58242;51.250;-1.118;2023-04-24T02:57:30;5.25;;;4.82;;
70667;SDS011;58242;51.250;-1.118;2023-04-24T02:59:55;6.40;;;5.80;;
70667;SDS011;58242;51.250;-1.118;2023-04-24T03:02:20;6.57;;;5.13;;
70667;SDS011;58242;51.250;-1.118;2023-04-24T03:04:46;5.95;;;5.40;;
70667;SDS011;58242;51.250;-1.118;2023-04-24T03:07:12;6.78;;;5.88;;
70667;SDS011;58242;51.250;-1.118;2023-04-24T03:09:39;5.80;;;5.20;;
70667;SDS011;58242;51.250;-1.118;2023-04-24T03:12:04;6.40;;;5.80;;
70667;SDS011;58242;51.250;-1.118;2023-04-24T03:14:30;5.90;;;5.35;;
70667;SDS011;58242;51.250;-1.118;2023-04-24T03:16:56;6.15;;;5.13;;
70667;SDS011;58242;51.250;-1.118;2023-04-24T03:19:21;5.05;;;4.65;;
70667;SDS011;58242;51.250;-1.118;2023-04-24T03:21:47;5.55;;;5.05;;
70667;SDS011;58242;51.250;-1.118;2023-04-24T03:24:12;5.43;;;4.93;;
70667;SDS011;58242;51.250;-1.118;2023-04-24T03:26:38;4.63;;;4.05;;
70667;SDS011;58242;51.250;-1.118;2023-04-24T03:29:03;5.53;;;4.95;;
70667;SDS011;58242;51.250;-1.118;2023-04-24T03:31:28;5.03;;;4.63;;
70667;SDS011;58242;51.250;-1.118;2023-04-24T03:33:54;4.88;;;4.47;;
70667;SDS011;58242;51.250;-1.118;2023-04-24T03:36:19;5.40;;;4.95;;
70667;SDS011;58242;51.250;-1.118;2023-04-24T03:38:45;4.88;;;4.47;;
70667;SDS011;58242;51.250;-1.118;2023-04-24T03:41:10;5.18;;;4.72;;
70667;SDS011;58242;51.250;-1.118;2023-04-24T03:43:36;5.57;;;5.03;;
70667;SDS011;58242;51.250;-1.118;2023-04-24T03:46:02;5.88;;;5.25;;
70667;SDS011;58242;51.250;-1.118;2023-04-24T03:48:27;5.60;;;5.10;;
70667;SDS011;58242;51.250;-1.118;2023-04-24T03:50:53;6.03;;;5.40;;
70667;SDS011;58242;51.250;-1.118;2023-04-24T03:53:18;4.97;;;4.57;;
70667;SDS011;58242;51.250;-1.118;2023-04-24T03:55:44;5.90;;;5.40;;
70667;SDS011;58242;51.250;-1.118;2023-04-24T03:58:10;5.78;;;5.15;;
70667;SDS011;58242;51.250;-1.118;2023-04-24T04:00:36;5.53;;;5.03;;
70667;SDS011;58242;51.250;-1.118;2023-04-24T04:03:02;6.45;;;5.70;;
70667;SDS011;58242;51.250;-1.118;2023-04-24T04:05:28;5.82;;;5.28;;
70667;SDS011;58242;51.250;-1.118;2023-04-24T04:07:53;5.70;;;5.13;;
70667;SDS011;58242;51.250;-1.118;2023-04-24T04:10:18;5.53;;;5.10;;
70667;SDS011;58242;51.250;-1.118;2023-04-24T04:12:43;6.07;;;5.22;;
70667;SDS011;58242;51.250;-1.118;2023-04-24T04:15:09;6.57;;;5.97;;
70667;SDS011;58242;51.250;-1.118;2023-04-24T04:17:34;6.13;;;5.53;;
70667;SDS011;58242;51.250;-1.118;2023-04-24T04:20:00;6.45;;;5.30;;
70667;SDS011;58242;51.250;-1.118;2023-04-24T04:22:26;5.70;;;5.20;;
70667;SDS011;58242;51.250;-1.118;2023-04-24T04:24:51;5.53;;;4.97;;
70667;SDS011;58242;51.250;-1.118;2023-04-24T04:27:17;6.40;;;5.32;;
70667;SDS011;58242;51.250;-1.118;2023-04-24T04:29:43;5.57;;;5.07;;
70667;SDS011;58242;51.250;-1.118;2023-04-24T04:32:09;4.97;;;4.57;;
70667;SDS011;58242;51.250;-1.118;2023-04-24T04:34:34;4.70;;;4.30;;
70667;SDS011;58242;51.250;-1.118;2023-04-24T04:37:02;4.90;;;4.50;;
70667;SDS011;58242;51.250;-1.118;2023-04-24T04:39:27;4.93;;;4.53;;
70667;SDS011;58242;51.250;-1.118;2023-04-24T04:41:53;3.90;;;3.60;;
70667;SDS011;58242;51.250;-1.118;2023-04-24T04:44:18;4.65;;;4.25;;
70667;SDS011;58242;51.250;-1.118;2023-04-24T04:46:44;5.28;;;4.80;;
70667;SDS011;58242;51.250;-1.118;2023-04-24T04:49:09;4.47;;;4.07;;
70667;SDS011;58242;51.250;-1.118;2023-04-24T04:51:35;4.55;;;4.15;;
70667;SDS011;58242;51.250;-1.118;2023-04-24T04:54:01;3.58;;;3.38;;
70667;SDS011;58242;51.250;-1.118;2023-04-24T04:56:26;3.92;;;3.63;;
70667;SDS011;58242;51.250;-1.118;2023-04-24T04:58:52;4.05;;;3.75;;
70667;SDS011;58242;51.250;-1.118;2023-04-24T05:01:17;3.88;;;3.58;;
70667;SDS011;58242;51.250;-1.118;2023-04-24T05:03:43;4.53;;;4.13;;
70667;SDS011;58242;51.250;-1.118;2023-04-24T05:06:09;3.97;;;3.67;;
70667;SDS011;58242;51.250;-1.118;2023-04-24T05:08:34;4.43;;;4.13;;
70667;SDS011;58242;51.250;-1.118;2023-04-24T05:11:00;4.97;;;4.57;;
70667;SDS011;58242;51.250;-1.118;2023-04-24T05:13:25;4.18;;;3.88;;
70667;SDS011;58242;51.250;-1.118;2023-04-24T05:15:51;4.60;;;4.20;;
70667;SDS011;58242;51.250;-1.118;2023-04-24T05:18:16;4.80;;;4.22;;
70667;SDS011;58242;51.250;-1.118;2023-04-24T05:20:42;5.03;;;4.63;;
70667;SDS011;58242;51.250;-1.118;2023-04-24T05:23:08;5.88;;;5.38;;
70667;SDS011;58242;51.250;-1.118;2023-04-24T05:25:34;5.45;;;4.95;;
70667;SDS011;58242;51.250;-1.118;2023-04-24T05:28:00;4.38;;;4.07;;
70667;SDS011;58242;51.250;-1.118;2023-04-24T05:30:26;4.57;;;4.18;;
70667;SDS011;58242;51.250;-1.118;2023-04-24T05:32:52;4.80;;;4.40;;
70667;SDS011;58242;51.250;-1.118;2023-04-24T05:35:17;5.90;;;4.78;;
70667;SDS011;58242;51.250;-1.118;2023-04-24T05:37:43;6.47;;;5.38;;
70667;SDS011;58242;51.250;-1.118;2023-04-24T05:40:09;4.60;;;4.22;;
70667;SDS011;58242;51.250;-1.118;2023-04-24T05:42:35;4.10;;;3.80;;
70667;SDS011;58242;51.250;-1.118;2023-04-24T05:45:00;3.45;;;3.25;;
70667;SDS011;58242;51.250;-1.118;2023-04-24T05:47:25;4.72;;;4.18;;
70667;SDS011;58242;51.250;-1.118;2023-04-24T05:49:51;4.18;;;3.88;;
70667;SDS011;58242;51.250;-1.118;2023-04-24T05:52:16;3.92;;;3.70;;
70667;SDS011;58242;51.250;-1.118;2023-04-24T05:54:42;3.88;;;3.58;;
70667;SDS011;58242;51.250;-1.118;2023-04-24T05:57:07;3.42;;;3.20;;
70667;SDS011;58242;51.250;-1.118;2023-04-24T05:59:33;3.65;;;3.42;;
70667;SDS011;58242;51.250;-1.118;2023-04-24T06:02:00;4.03;;;3.63;;
70667;SDS011;58242;51.250;-1.118;2023-04-24T06:04:25;4.05;;;3.63;;
70667;SDS011;58242;51.250;-1.118;2023-04-24T06:06:50;3.60;;;3.30;;
70667;SDS011;58242;51.250;-1.118;2023-04-24T06:09:20;3.80;;;3.50;;
70667;SDS011;58242;51.250;-1.118;2023-04-24T06:11:46;3.83;;;3.53;;
70667;SDS011;58242;51.250;-1.118;2023-04-24T06:14:11;4.32;;;3.92;;
70667;SDS011;58242;51.250;-1.118;2023-04-24T06:16:37;4.47;;;4.18;;
70667;SDS011;58242;51.250;-1.118;2023-04-24T06:19:03;4.47;;;4.10;;
70667;SDS011;58242;51.250;-1.118;2023-04-24T06:21:29;4.55;;;4.25;;
70667;SDS011;58242;51.250;-1.118;2023-04-24T06:23:54;5.00;;;4.60;;
70667;SDS011;58242;51.250;-1.118;2023-04-24T06:26:21;5.50;;;4.95;;
70667;SDS011;58242;51.250;-1.118;2023-04-24T06:28:47;5.47;;;4.97;;
70667;SDS011;58242;51.250;-1.118;2023-04-24T06:31:12;4.40;;;4.00;;
70667;SDS011;58242;51.250;-1.118;2023-04-24T06:33:37;4.60;;;4.20;;
70667;SDS011;58242;51.250;-1.118;2023-04-24T06:36:03;4.80;;;4.40;;
70667;SDS011;58242;51.250;-1.118;2023-04-24T06:38:29;4.72;;;4.32;;
70667;SDS011;58242;51.250;-1.118;2023-04-24T06:40:54;4.28;;;3.97;;
70667;SDS011;58242;51.250;-1.118;2023-04-24T06:43:20;5.43;;;4.93;;
70667;SDS011;58242;51.250;-1.118;2023-04-24T06:45:45;4.65;;;4.25;;
70667;SDS011;58242;51.250;-1.118;2023-04-24T06:48:12;4.60;;;4.20;;
70667;SDS011;58242;51.250;-1.118;2023-04-24T06:50:37;4.40;;;4.00;;
70667;SDS011;58242;51.250;-1.118;2023-04-24T06:53:02;3.80;;;3.50;;
70667;SDS011;58242;51.250;-1.118;2023-04-24T06:55:28;4.75;;;4.35;;
70667;SDS011;58242;51.250;-1.118;2023-04-24T06:57:53;5.53;;;5.03;;
70667;SDS011;58242;51.250;-1.118;2023-04-24T07:00:18;4.20;;;3.90;;
70667;SDS011;58242;51.250;-1.118;2023-04-24T07:02:44;4.88;;;4.47;;
70667;SDS011;58242;51.250;-1.118;2023-04-24T07:05:09;5.95;;;5.35;;
70667;SDS011;58242;51.250;-1.118;2023-04-24T07:07:34;5.32;;;4.82;;
70667;SDS011;58242;51.250;-1.118;2023-04-24T07:10:02;5.30;;;4.78;;
70667;SDS011;58242;51.250;-1.118;2023-04-24T07:12:29;4.95;;;4.55;;
70667;SDS011;58242;51.250;-1.118;2023-04-24T07:14:54;5.07;;;4.57;;
70667;SDS011;58242;51.250;-1.118;2023-04-24T07:17:20;6.03;;;5.43;;
70667;SDS011;58242;51.250;-1.118;2023-04-24T07:19:45;4.80;;;4.30;;
70667;SDS011;58242;51.250;-1.118;2023-04-24T07:22:11;3.80;;;3.50;;
70667;SDS011;58242;51.250;-1.118;2023-04-24T07:24:41;4.10;;;3.80;;
70667;SDS011;58242;51.250;-1.118;2023-04-24T07:27:08;4.28;;;3.97;;
70667;SDS011;58242;51.250;-1.118;2023-04-24T07:29:33;4.32;;;4.03;;
70667;SDS011;58242;51.250;-1.118;2023-04-24T07:31:58;4.88;;;4.47;;
70667;SDS011;58242;51.250;-1.118;2023-04-24T07:34:24;4.43;;;4.03;;
70667;SDS011;58242;51.250;-1.118;2023-04-24T07:36:49;4.20;;;3.90;;
70667;SDS011;58242;51.250;-1.118;2023-04-24T07:39:14;4.07;;;3.78;;
70667;SDS011;58242;51.250;-1.118;2023-04-24T07:41:40;4.22;;;3.92;;
70667;SDS011;58242;51.250;-1.118;2023-04-24T07:44:05;3.58;;;3.35;;
70667;SDS011;58242;51.250;-1.118;2023-04-24T07:46:31;2.75;;;2.60;;
70667;SDS011;58242;51.250;-1.118;2023-04-24T07:48:56;3.22;;;3.00;;
70667;SDS011;58242;51.250;-1.118;2023-04-24T07:51:22;3.70;;;3.50;;
70667;SDS011;58242;51.250;-1.118;2023-04-24T07:53:47;4.50;;;4.03;;
70667;SDS011;58242;51.250;-1.118;2023-04-24T07:56:13;3.92;;;3.63;;
70667;SDS011;58242;51.250;-1.118;2023-04-24T07:58:38;3.50;;;3.20;;
70667;SDS011;58242;51.250;-1.118;2023-04-24T08:01:04;4.35;;;3.95;;
70667;SDS011;58242;51.250;-1.118;2023-04-24T08:03:29;5.20;;;4.18;;
70667;SDS011;58242;51.250;-1.118;2023-04-24T08:05:55;4.43;;;4.03;;
70667;SDS011;58242;51.250;-1.118;2023-04-24T08:08:21;4.15;;;3.65;;
70667;SDS011;58242;51.250;-1.118;2023-04-24T08:10:47;4.00;;;3.70;;
70667;SDS011;58242;51.250;-1.118;2023-04-24T08:13:12;4.35;;;3.90;;
70667;SDS011;58242;51.250;-1.118;2023-04-24T08:15:37;3.92;;;3.60;;
70667;SDS011;58242;51.250;-1.118;2023-04-24T08:18:03;3.30;;;3.00;;
70667;SDS011;58242;51.250;-1.118;2023-04-24T08:20:28;3.67;;;3.38;;
70667;SDS011;58242;51.250;-1.118;2023-04-24T08:22:53;4.00;;;3.22;;
70667;SDS011;58242;51.250;-1.118;2023-04-24T08:25:20;2.75;;;2.55;;
70667;SDS011;58242;51.250;-1.118;2023-04-24T08:27:45;3.08;;;2.88;;
70667;SDS011;58242;51.250;-1.118;2023-04-24T08:30:11;4.05;;;3.72;;
70667;SDS011;58242;51.250;-1.118;2023-04-24T08:32:36;4.10;;;3.80;;
70667;SDS011;58242;51.250;-1.118;2023-04-24T08:35:02;3.90;;;3.60;;
70667;SDS011;58242;51.250;-1.118;2023-04-24T08:37:28;5.47;;;3.42;;
70667;SDS011;58242;51.250;-1.118;2023-04-24T08:39:53;3.50;;;3.20;;
70667;SDS011;58242;51.250;-1.118;2023-04-24T08:42:19;3.17;;;2.97;;
70667;SDS011;58242;51.250;-1.118;2023-04-24T08:44:45;2.72;;;2.53;;
70667;SDS011;58242;51.250;-1.118;2023-04-24T08:47:13;3.38;;;3.08;;
70667;SDS011;58242;51.250;-1.118;2023-04-24T08:49:40;4.13;;;3.72;;
70667;SDS011;58242;51.250;-1.118;2023-04-24T08:52:05;4.15;;;3.58;;
70667;SDS011;58242;51.250;-1.118;2023-04-24T08:54:31;4.20;;;3.63;;
70667;SDS011;58242;51.250;-1.118;2023-04-24T08:56:59;3.55;;;3.10;;
70667;SDS011;58242;51.250;-1.118;2023-04-24T08:59:26;4.60;;;4.15;;
70667;SDS011;58242;51.250;-1.118;2023-04-24T09:01:52;3.30;;;3.10;;
70667;SDS011;58242;51.250;-1.118;2023-04-24T09:04:19;2.83;;;2.63;;
70667;SDS011;58242;51.250;-1.118;2023-04-24T09:06:47;3.67;;;3.38;;
70667;SDS011;58242;51.250;-1.118;2023-04-24T09:09:14;3.90;;;3.10;;
70667;SDS011;58242;51.250;-1.118;2023-04-24T09:11:42;4.43;;;3.78;;
70667;SDS011;58242;51.250;-1.118;2023-04-24T09:14:09;5.85;;;3.53;;
70667;SDS011;58242;51.250;-1.118;2023-04-24T09:16:34;2.90;;;2.70;;
70667;SDS011;58242;51.250;-1.118;2023-04-24T09:19:00;6.72;;;3.97;;
70667;SDS011;58242;51.250;-1.118;2023-04-24T09:21:26;3.33;;;2.85;;
70667;SDS011;58242;51.250;-1.118;2023-04-24T09:23:58;3.65;;;3.03;;
70667;SDS011;58242;51.250;-1.118;2023-04-24T09:26:25;3.38;;;2.72;;
70667;SDS011;58242;51.250;-1.118;2023-04-24T09:28:50;2.80;;;2.60;;
70667;SDS011;58242;51.250;-1.118;2023-04-24T09:31:18;3.03;;;2.83;;
70667;SDS011;58242;51.250;-1.118;2023-04-24T09:36:31;3.05;;;2.60;;
70667;SDS011;58242;51.250;-1.118;2023-04-24T09:39:01;3.72;;;2.67;;
70667;SDS011;58242;51.250;-1.118;2023-04-24T09:41:27;3.78;;;3.22;;
70667;SDS011;58242;51.250;-1.118;2023-04-24T09:43:54;3.15;;;2.90;;
70667;SDS011;58242;51.250;-1.118;2023-04-24T09:46:20;3.08;;;2.85;;
70667;SDS011;58242;51.250;-1.118;2023-04-24T09:48:48;2.53;;;2.43;;
70667;SDS011;58242;51.250;-1.118;2023-04-24T09:51:14;3.55;;;3.15;;
70667;SDS011;58242;51.250;-1.118;2023-04-24T09:53:44;3.38;;;3.17;;
70667;SDS011;58242;51.250;-1.118;2023-04-24T09:56:11;3.88;;;3.58;;
70667;SDS011;58242;51.250;-1.118;2023-04-24T09:58:39;3.50;;;3.30;;
70667;SDS011;58242;51.250;-1.118;2023-04-24T10:01:05;3.00;;;2.83;;
70667;SDS011;58242;51.250;-1.118;2023-04-24T10:03:30;3.92;;;3.22;;
70667;SDS011;58242;51.250;-1.118;2023-04-24T10:06:03;4.05;;;3.63;;
70667;SDS011;58242;51.250;-1.118;2023-04-24T10:08:34;4.50;;;4.10;;
70667;SDS011;58242;51.250;-1.118;2023-04-24T10:11:01;3.22;;;2.92;;
70667;SDS011;58242;51.250;-1.118;2023-04-24T10:13:26;2.80;;;2.65;;
70667;SDS011;58242;51.250;-1.118;2023-04-24T10:15:52;3.20;;;3.00;;
70667;SDS011;58242;51.250;-1.118;2023-04-24T10:18:18;3.25;;;3.05;;
70667;SDS011;58242;51.250;-1.118;2023-04-24T10:20:46;3.08;;;2.70;;
70667;SDS011;58242;51.250;-1.118;2023-04-24T10:23:12;2.33;;;2.22;;
70667;SDS011;58242;51.250;-1.118;2023-04-24T10:25:37;2.70;;;2.50;;
70667;SDS011;58242;51.250;-1.118;2023-04-24T10:28:03;3.55;;;3.25;;
70667;SDS011;58242;51.250;-1.118;2023-04-24T10:30:30;2.92;;;2.72;;
70667;SDS011;58242;51.250;-1.118;2023-04-24T10:33:00;2.33;;;2.13;;
70667;SDS011;58242;51.250;-1.118;2023-04-24T10:35:30;4.65;;;2.88;;
70667;SDS011;58242;51.250;-1.118;2023-04-24T10:37:58;3.05;;;2.72;;
70667;SDS011;58242;51.250;-1.118;2023-04-24T10:40:32;2.58;;;2.47;;
70667;SDS011;58242;51.250;-1.118;2023-04-24T10:42:59;2.58;;;2.47;;
70667;SDS011;58242;51.250;-1.118;2023-04-24T10:45:26;3.58;;;3.28;;
70667;SDS011;58242;51.250;-1.118;2023-04-24T10:47:58;3.00;;;2.72;;
70667;SDS011;58242;51.250;-1.118;2023-04-24T10:50:30;3.45;;;3.20;;
70667;SDS011;58242;51.250;-1.118;2023-04-24T10:53:16;2.92;;;2.72;;
70667;SDS011;58242;51.250;-1.118;2023-04-24T10:55:44;2.70;;;2.50;;
70667;SDS011;58242;51.250;-1.118;2023-04-24T10:58:11;2.78;;;2.58;;
70667;SDS011;58242;51.250;-1.118;2023-04-24T11:00:38;2.95;;;2.80;;
70667;SDS011;58242;51.250;-1.118;2023-04-24T11:03:05;2.58;;;2.38;;
70667;SDS011;58242;51.250;-1.118;2023-04-24T11:08:23;2.80;;;2.63;;
70667;SDS011;58242;51.250;-1.118;2023-04-24T11:21:42;2.58;;;2.30;;
70667;SDS011;58242;51.250;-1.118;2023-04-24T11:26:47;2.70;;;2.53;;
70667;SDS011;58242;51.250;-1.118;2023-04-24T11:29:13;2.85;;;2.65;;
70667;SDS011;58242;51.250;-1.118;2023-04-24T11:31:39;3.03;;;2.83;;
70667;SDS011;58242;51.250;-1.118;2023-04-24T11:34:10;3.13;;;2.92;;
70667;SDS011;58242;51.250;-1.118;2023-04-24T11:36:39;2.42;;;2.33;;
70667;SDS011;58242;51.250;-1.118;2023-04-24T11:39:07;3.10;;;2.80;;
70667;SDS011;58242;51.250;-1.118;2023-04-24T11:41:33;2.28;;;2.17;;
70667;SDS011;58242;51.250;-1.118;2023-04-24T11:43:58;2.30;;;2.20;;
70667;SDS011;58242;51.250;-1.118;2023-04-24T11:46:27;2.67;;;2.47;;
70667;SDS011;58242;51.250;-1.118;2023-04-24T11:48:52;2.30;;;2.20;;
70667;SDS011;58242;51.250;-1.118;2023-04-24T11:51:18;3.13;;;2.92;;
70667;SDS011;58242;51.250;-1.118;2023-04-24T11:53:43;2.70;;;2.33;;
70667;SDS011;58242;51.250;-1.118;2023-04-24T11:56:08;2.50;;;2.40;;
70667;SDS011;58242;51.250;-1.118;2023-04-24T11:58:37;3.55;;;3.30;;
70667;SDS011;58242;51.250;-1.118;2023-04-24T12:01:04;3.28;;;3.00;;
70667;SDS011;58242;51.250;-1.118;2023-04-24T12:03:30;3.10;;;2.78;;
70667;SDS011;58242;51.250;-1.118;2023-04-24T12:06:04;2.90;;;2.80;;
70667;SDS011;58242;51.250;-1.118;2023-04-24T12:08:34;3.08;;;2.88;;
70667;SDS011;58242;51.250;-1.118;2023-04-24T12:11:00;3.05;;;2.85;;
70667;SDS011;58242;51.250;-1.118;2023-04-24T12:13:26;3.28;;;2.97;;
70667;SDS011;58242;51.250;-1.118;2023-04-24T12:15:51;2.88;;;2.67;;
70667;SDS011;58242;51.250;-1.118;2023-04-24T12:18:17;2.30;;;2.20;;
70667;SDS011;58242;51.250;-1.118;2023-04-24T12:20:42;2.88;;;2.50;;
70667;SDS011;58242;51.250;-1.118;2023-04-24T12:23:07;3.03;;;2.83;;
70667;SDS011;58242;51.250;-1.118;2023-04-24T12:25:33;3.20;;;3.00;;
70667;SDS011;58242;51.250;-1.118;2023-04-24T12:30:27;2.50;;;2.40;;
70667;SDS011;58242;51.250;-1.118;2023-04-24T12:32:54;2.80;;;2.60;;
70667;SDS011;58242;51.250;-1.118;2023-04-24T12:35:20;3.90;;;2.92;;
70667;SDS011;58242;51.250;-1.118;2023-04-24T12:37:47;3.42;;;3.22;;
70667;SDS011;58242;51.250;-1.118;2023-04-24T12:40:13;3.40;;;3.20;;
70667;SDS011;58242;51.250;-1.118;2023-04-24T12:42:43;3.22;;;3.03;;
70667;SDS011;58242;51.250;-1.118;2023-04-24T12:45:13;3.13;;;2.92;;
70667;SDS011;58242;51.250;-1.118;2023-04-24T12:47:39;2.70;;;2.53;;
70667;SDS011;58242;51.250;-1.118;2023-04-24T12:50:09;2.40;;;2.20;;
70667;SDS011;58242;51.250;-1.118;2023-04-24T12:52:36;3.90;;;3.30;;
70667;SDS011;58242;51.250;-1.118;2023-04-24T12:55:01;3.42;;;3.22;;
70667;SDS011;58242;51.250;-1.118;2023-04-24T12:57:28;3.38;;;3.17;;
70667;SDS011;58242;51.250;-1.118;2023-04-24T12:59:55;1.90;;;1.80;;
70667;SDS011;58242;51.250;-1.118;2023-04-24T13:02:22;2.35;;;2.03;;
70667;SDS011;58242;51.250;-1.118;2023-04-24T13:04:48;2.20;;;2.10;;
70667;SDS011;58242;51.250;-1.118;2023-04-24T13:07:14;2.70;;;2.40;;
70667;SDS011;58242;51.250;-1.118;2023-04-24T13:09:40;2.10;;;1.98;;
70667;SDS011;58242;51.250;-1.118;2023-04-24T13:12:07;2.60;;;2.00;;
70667;SDS011;58242;51.250;-1.118;2023-04-24T13:14:32;1.75;;;1.65;;
70667;SDS011;58242;51.250;-1.118;2023-04-24T13:16:58;1.92;;;1.83;;
70667;SDS011;58242;51.250;-1.118;2023-04-24T13:19:26;2.42;;;2.33;;
70667;SDS011;58242;51.250;-1.118;2023-04-24T13:21:53;2.50;;;2.40;;
70667;SDS011;58242;51.250;-1.118;2023-04-24T13:24:20;2.20;;;2.10;;
70667;SDS011;58242;51.250;-1.118;2023-04-24T13:26:45;2.25;;;2.10;;
70667;SDS011;58242;51.250;-1.118;2023-04-24T13:29:11;1.98;;;1.70;;
70667;SDS011;58242;51.250;-1.118;2023-04-24T13:31:36;4.05;;;2.10;;
70667;SDS011;58242;51.250;-1.118;2023-04-24T13:34:02;1.98;;;1.85;;
70667;SDS011;58242;51.250;-1.118;2023-04-24T13:36:28;2.78;;;2.10;;
70667;SDS011;58242;51.250;-1.118;2023-04-24T13:38:54;2.20;;;2.10;;
70667;SDS011;58242;51.250;-1.118;2023-04-24T13:41:19;2.30;;;2.20;;
70667;SDS011;58242;51.250;-1.118;2023-04-24T13:43:44;2.30;;;2.17;;
70667;SDS011;58242;51.250;-1.118;2023-04-24T13:46:10;2.20;;;2.10;;
70667;SDS011;58242;51.250;-1.118;2023-04-24T13:48:35;2.65;;;2.30;;
70667;SDS011;58242;51.250;-1.118;2023-04-24T13:51:00;2.80;;;2.70;;
70667;SDS011;58242;51.250;-1.118;2023-04-24T13:53:26;2.33;;;2.22;;
70667;SDS011;58242;51.250;-1.118;2023-04-24T13:55:51;2.38;;;2.20;;
70667;SDS011;58242;51.250;-1.118;2023-04-24T13:58:16;2.45;;;2.25;;
70667;SDS011;58242;51.250;-1.118;2023-04-24T14:00:42;3.05;;;2.22;;
70667;SDS011;58242;51.250;-1.118;2023-04-24T14:03:07;2.47;;;2.00;;
70667;SDS011;58242;51.250;-1.118;2023-04-24T14:05:32;2.22;;;2.13;;
70667;SDS011;58242;51.250;-1.118;2023-04-24T14:07:58;4.28;;;2.38;;
70667;SDS011;58242;51.250;-1.118;2023-04-24T14:10:23;2.30;;;2.10;;
70667;SDS011;58242;51.250;-1.118;2023-04-24T14:12:49;2.92;;;2.08;;
70667;SDS011;58242;51.250;-1.118;2023-04-24T14:15:14;1.77;;;1.67;;
70667;SDS011;58242;51.250;-1.118;2023-04-24T14:17:39;2.10;;;2.00;;
70667;SDS011;58242;51.250;-1.118;2023-04-24T14:20:05;1.92;;;1.83;;
70667;SDS011;58242;51.250;-1.118;2023-04-24T14:22:31;2.10;;;2.00;;
70667;SDS011;58242;51.250;-1.118;2023-04-24T14:24:57;2.05;;;1.95;;
70667;SDS011;58242;51.250;-1.118;2023-04-24T14:27:22;2.20;;;2.10;;
70667;SDS011;58242;51.250;-1.118;2023-04-24T14:29:48;2.67;;;2.38;;
70667;SDS011;58242;51.250;-1.118;2023-04-24T14:32:13;2.00;;;1.90;;
70667;SDS011;58242;51.250;-1.118;2023-04-24T14:34:40;2.20;;;2.10;;
70667;SDS011;58242;51.250;-1.118;2023-04-24T14:37:05;2.17;;;2.08;;
70667;SDS011;58242;51.250;-1.118;2023-04-24T14:39:30;2.50;;;2.33;;
70667;SDS011;58242;51.250;-1.118;2023-04-24T14:41:56;2.08;;;1.98;;
70667;SDS011;58242;51.250;-1.118;2023-04-24T14:44:21;2.10;;;2.00;;
70667;SDS011;58242;51.250;-1.118;2023-04-24T14:46:48;2.20;;;2.10;;